sensor_id;sensor_type;location;lat;lon;timestamp;P1;durP1;ratioP1;P2;durP2;ratioP2
37885;SDS011;23726;52.520;13.434;2022-09-02T00:00:42;4.05;;;3.05;;
37885;SDS011;23726;52.520;13.434;2022-09-02T00:03:10;4.97;;;2.95;;
37885;SDS011;23726;52.520;13.434;2022-09-02T00:05:36;3.88;;;2.75;;
37885;SDS011;23726;52.520;13.434;2022-09-02T00:08:02;2.95;;;2.63;;
37885;SDS011;23726;52.520;13.434;2022-09-02T00:10:29;4.75;;;2.63;;
37885;SDS011;23726;52.520;13.434;2022-09-02T00:12:57;3.83;;;2.67;;
37885;SDS011;23726;52.520;13.434;2022-09-02T00:15:22;4.32;;;3.15;;
37885;SDS011;23726;52.520;13.434;2022-09-02T00:17:49;4.28;;;3.20;;
37885;SDS011;23726;52.520;13.434;2022-09-02T00:20:15;4.15;;;2.92;;
37885;SDS011;23726;52.520;13.434;2022-09-02T00:22:42;3.22;;;2.92;;
37885;SDS011;23726;52.520;13.434;2022-09-02T00:25:08;3.67;;;2.50;;
37885;SDS011;23726;52.520;13.434;2022-09-02T00:27:42;3.35;;;3.00;;
37885;SDS011;23726;52.520;13.434;2022-09-02T00:30:08;3.80;;;2.70;;
37885;SDS011;23726;52.520;13.434;2022-09-02T00:32:33;5.07;;;2.88;;
37885;SDS011;23726;52.520;13.434;2022-09-02T00:34:59;6.03;;;2.95;;
37885;SDS011;23726;52.520;13.434;2022-09-02T00:37:25;4.13;;;3.03;;
37885;SDS011;23726;52.520;13.434;2022-09-02T00:39:52;3.63;;;2.80;;
37885;SDS011;23726;52.520;13.434;2022-09-02T00:42:19;3.50;;;2.70;;
37885;SDS011;23726;52.520;13.434;2022-09-02T00:44:45;3.72;;;2.45;;
37885;SDS011;23726;52.520;13.434;2022-09-02T00:47:11;3.50;;;2.90;;
37885;SDS011;23726;52.520;13.434;2022-09-02T00:49:39;3.70;;;2.95;;
37885;SDS011;23726;52.520;13.434;2022-09-02T00:52:13;3.25;;;2.60;;
37885;SDS011;23726;52.520;13.434;2022-09-02T00:54:48;2.88;;;2.60;;
37885;SDS011;23726;52.520;13.434;2022-09-02T00:57:17;3.92;;;2.90;;
37885;SDS011;23726;52.520;13.434;2022-09-02T01:02:27;4.20;;;2.63;;
37885;SDS011;23726;52.520;13.434;2022-09-02T01:04:57;3.53;;;2.80;;
37885;SDS011;23726;52.520;13.434;2022-09-02T01:07:24;2.70;;;2.50;;
37885;SDS011;23726;52.520;13.434;2022-09-02T01:09:53;2.83;;;2.30;;
37885;SDS011;23726;52.520;13.434;2022-09-02T01:12:20;3.80;;;2.80;;
37885;SDS011;23726;52.520;13.434;2022-09-02T01:14:46;2.88;;;2.47;;
37885;SDS011;23726;52.520;13.434;2022-09-02T01:17:12;4.00;;;2.60;;
37885;SDS011;23726;52.520;13.434;2022-09-02T01:19:43;2.72;;;2.45;;
37885;SDS011;23726;52.520;13.434;2022-09-02T01:24:40;3.00;;;2.70;;
37885;SDS011;23726;52.520;13.434;2022-09-02T01:27:05;2.63;;;2.38;;
37885;SDS011;23726;52.520;13.434;2022-09-02T01:29:31;3.90;;;2.40;;
37885;SDS011;23726;52.520;13.434;2022-09-02T01:31:56;2.60;;;2.35;;
37885;SDS011;23726;52.520;13.434;2022-09-02T01:34:22;5.13;;;2.40;;
37885;SDS011;23726;52.520;13.434;2022-09-02T01:36:48;3.60;;;2.65;;
37885;SDS011;23726;52.520;13.434;2022-09-02T01:39:15;3.08;;;2.42;;
37885;SDS011;23726;52.520;13.434;2022-09-02T01:41:41;3.30;;;2.72;;
37885;SDS011;23726;52.520;13.434;2022-09-02T01:44:07;5.38;;;3.08;;
37885;SDS011;23726;52.520;13.434;2022-09-02T01:46:33;3.42;;;2.53;;
37885;SDS011;23726;52.520;13.434;2022-09-02T01:49:00;3.15;;;2.58;;
37885;SDS011;23726;52.520;13.434;2022-09-02T01:51:25;3.40;;;2.67;;
37885;SDS011;23726;52.520;13.434;2022-09-02T01:53:51;4.68;;;2.80;;
37885;SDS011;23726;52.520;13.434;2022-09-02T01:56:17;2.72;;;2.40;;
37885;SDS011;23726;52.520;13.434;2022-09-02T01:58:42;3.03;;;2.65;;
37885;SDS011;23726;52.520;13.434;2022-09-02T02:01:09;2.80;;;2.38;;
37885;SDS011;23726;52.520;13.434;2022-09-02T02:03:35;3.70;;;2.33;;
37885;SDS011;23726;52.520;13.434;2022-09-02T02:06:06;2.40;;;2.20;;
37885;SDS011;23726;52.520;13.434;2022-09-02T02:08:34;2.30;;;2.10;;
37885;SDS011;23726;52.520;13.434;2022-09-02T02:10:59;2.58;;;2.30;;
37885;SDS011;23726;52.520;13.434;2022-09-02T02:13:27;2.38;;;2.17;;
37885;SDS011;23726;52.520;13.434;2022-09-02T02:15:53;3.00;;;2.20;;
37885;SDS011;23726;52.520;13.434;2022-09-02T02:18:19;2.45;;;2.22;;
37885;SDS011;23726;52.520;13.434;2022-09-02T02:20:44;2.55;;;2.30;;
37885;SDS011;23726;52.520;13.434;2022-09-02T02:23:10;4.05;;;2.50;;
37885;SDS011;23726;52.520;13.434;2022-09-02T02:25:36;2.47;;;2.28;;
37885;SDS011;23726;52.520;13.434;2022-09-02T02:28:02;3.85;;;2.40;;
37885;SDS011;23726;52.520;13.434;2022-09-02T02:30:28;3.60;;;2.42;;
37885;SDS011;23726;52.520;13.434;2022-09-02T02:32:54;3.35;;;2.45;;
37885;SDS011;23726;52.520;13.434;2022-09-02T02:35:20;2.47;;;2.28;;
37885;SDS011;23726;52.520;13.434;2022-09-02T02:37:46;2.90;;;2.40;;
37885;SDS011;23726;52.520;13.434;2022-09-02T02:40:18;2.60;;;2.10;;
37885;SDS011;23726;52.520;13.434;2022-09-02T02:42:45;2.85;;;2.55;;
37885;SDS011;23726;52.520;13.434;2022-09-02T02:45:12;2.63;;;2.13;;
37885;SDS011;23726;52.520;13.434;2022-09-02T02:47:39;3.33;;;2.40;;
37885;SDS011;23726;52.520;13.434;2022-09-02T02:50:07;2.58;;;2.20;;
37885;SDS011;23726;52.520;13.434;2022-09-02T02:52:36;2.35;;;2.15;;
37885;SDS011;23726;52.520;13.434;2022-09-02T02:55:03;2.45;;;2.17;;
37885;SDS011;23726;52.520;13.434;2022-09-02T02:57:30;2.53;;;2.30;;
37885;SDS011;23726;52.520;13.434;2022-09-02T02:59:56;2.08;;;1.88;;
37885;SDS011;23726;52.520;13.434;2022-09-02T03:02:23;3.72;;;2.40;;
37885;SDS011;23726;52.520;13.434;2022-09-02T03:04:48;3.17;;;2.08;;
37885;SDS011;23726;52.520;13.434;2022-09-02T03:07:18;3.10;;;2.80;;
37885;SDS011;23726;52.520;13.434;2022-09-02T03:09:44;3.65;;;2.28;;
37885;SDS011;23726;52.520;13.434;2022-09-02T03:12:10;3.13;;;2.70;;
37885;SDS011;23726;52.520;13.434;2022-09-02T03:14:35;2.13;;;1.92;;
37885;SDS011;23726;52.520;13.434;2022-09-02T03:17:02;2.10;;;1.90;;
37885;SDS011;23726;52.520;13.434;2022-09-02T03:19:28;2.28;;;2.08;;
37885;SDS011;23726;52.520;13.434;2022-09-02T03:21:53;2.60;;;2.20;;
37885;SDS011;23726;52.520;13.434;2022-09-02T03:24:19;2.25;;;2.03;;
37885;SDS011;23726;52.520;13.434;2022-09-02T03:26:46;2.40;;;2.20;;
37885;SDS011;23726;52.520;13.434;2022-09-02T03:29:12;2.22;;;2.00;;
37885;SDS011;23726;52.520;13.434;2022-09-02T03:31:37;3.15;;;2.70;;
37885;SDS011;23726;52.520;13.434;2022-09-02T03:34:03;2.78;;;2.15;;
37885;SDS011;23726;52.520;13.434;2022-09-02T03:36:34;2.88;;;2.30;;
37885;SDS011;23726;52.520;13.434;2022-09-02T03:39:02;3.05;;;2.22;;
37885;SDS011;23726;52.520;13.434;2022-09-02T03:41:29;2.38;;;2.17;;
37885;SDS011;23726;52.520;13.434;2022-09-02T03:43:56;2.45;;;2.00;;
37885;SDS011;23726;52.520;13.434;2022-09-02T03:46:22;2.80;;;2.03;;
37885;SDS011;23726;52.520;13.434;2022-09-02T03:48:48;2.40;;;2.20;;
37885;SDS011;23726;52.520;13.434;2022-09-02T03:51:15;2.28;;;2.08;;
37885;SDS011;23726;52.520;13.434;2022-09-02T03:53:44;2.38;;;2.15;;
37885;SDS011;23726;52.520;13.434;2022-09-02T03:56:12;2.28;;;2.08;;
37885;SDS011;23726;52.520;13.434;2022-09-02T03:58:40;2.45;;;2.22;;
37885;SDS011;23726;52.520;13.434;2022-09-02T04:01:13;2.45;;;2.25;;
37885;SDS011;23726;52.520;13.434;2022-09-02T04:03:42;2.38;;;2.10;;
37885;SDS011;23726;52.520;13.434;2022-09-02T04:06:09;2.53;;;1.90;;
37885;SDS011;23726;52.520;13.434;2022-09-02T04:08:37;2.78;;;1.80;;
37885;SDS011;23726;52.520;13.434;2022-09-02T04:11:05;2.70;;;2.20;;
37885;SDS011;23726;52.520;13.434;2022-09-02T04:13:32;5.03;;;2.35;;
37885;SDS011;23726;52.520;13.434;2022-09-02T04:15:59;2.35;;;1.85;;
37885;SDS011;23726;52.520;13.434;2022-09-02T04:18:34;1.90;;;1.80;;
37885;SDS011;23726;52.520;13.434;2022-09-02T04:20:59;2.15;;;1.95;;
37885;SDS011;23726;52.520;13.434;2022-09-02T04:23:25;2.40;;;2.13;;
37885;SDS011;23726;52.520;13.434;2022-09-02T04:25:54;2.22;;;2.03;;
37885;SDS011;23726;52.520;13.434;2022-09-02T04:28:20;2.17;;;1.98;;
37885;SDS011;23726;52.520;13.434;2022-09-02T04:30:46;2.38;;;2.10;;
37885;SDS011;23726;52.520;13.434;2022-09-02T04:33:12;2.97;;;2.10;;
37885;SDS011;23726;52.520;13.434;2022-09-02T04:35:39;2.38;;;2.00;;
37885;SDS011;23726;52.520;13.434;2022-09-02T04:38:09;2.35;;;2.15;;
37885;SDS011;23726;52.520;13.434;2022-09-02T04:40:38;3.10;;;2.15;;
37885;SDS011;23726;52.520;13.434;2022-09-02T04:43:08;2.40;;;2.20;;
37885;SDS011;23726;52.520;13.434;2022-09-02T04:45:34;2.42;;;2.22;;
37885;SDS011;23726;52.520;13.434;2022-09-02T04:48:02;3.60;;;2.17;;
37885;SDS011;23726;52.520;13.434;2022-09-02T04:50:28;3.45;;;2.08;;
37885;SDS011;23726;52.520;13.434;2022-09-02T04:52:54;2.33;;;2.10;;
37885;SDS011;23726;52.520;13.434;2022-09-02T04:55:20;2.33;;;2.13;;
37885;SDS011;23726;52.520;13.434;2022-09-02T04:57:46;2.38;;;1.80;;
37885;SDS011;23726;52.520;13.434;2022-09-02T05:00:12;2.83;;;2.47;;
37885;SDS011;23726;52.520;13.434;2022-09-02T05:02:38;2.10;;;1.88;;
37885;SDS011;23726;52.520;13.434;2022-09-02T05:05:04;2.08;;;1.90;;
37885;SDS011;23726;52.520;13.434;2022-09-02T05:07:30;1.90;;;1.77;;
37885;SDS011;23726;52.520;13.434;2022-09-02T05:09:59;2.90;;;2.40;;
37885;SDS011;23726;52.520;13.434;2022-09-02T05:12:24;2.25;;;1.98;;
37885;SDS011;23726;52.520;13.434;2022-09-02T05:14:52;2.28;;;2.08;;
37885;SDS011;23726;52.520;13.434;2022-09-02T05:17:20;2.50;;;2.22;;
37885;SDS011;23726;52.520;13.434;2022-09-02T05:19:46;1.90;;;1.70;;
37885;SDS011;23726;52.520;13.434;2022-09-02T05:22:12;8.57;;;2.20;;
37885;SDS011;23726;52.520;13.434;2022-09-02T05:24:38;4.22;;;2.00;;
37885;SDS011;23726;52.520;13.434;2022-09-02T05:27:04;2.63;;;2.28;;
37885;SDS011;23726;52.520;13.434;2022-09-02T05:29:30;1.88;;;1.75;;
37885;SDS011;23726;52.520;13.434;2022-09-02T05:31:57;2.20;;;2.00;;
37885;SDS011;23726;52.520;13.434;2022-09-02T05:34:23;2.72;;;2.25;;
37885;SDS011;23726;52.520;13.434;2022-09-02T05:36:49;3.80;;;1.88;;
37885;SDS011;23726;52.520;13.434;2022-09-02T05:39:14;3.95;;;2.03;;
37885;SDS011;23726;52.520;13.434;2022-09-02T05:41:40;2.65;;;2.08;;
37885;SDS011;23726;52.520;13.434;2022-09-02T05:44:06;2.42;;;2.20;;
37885;SDS011;23726;52.520;13.434;2022-09-02T05:46:31;2.42;;;2.15;;
37885;SDS011;23726;52.520;13.434;2022-09-02T05:48:59;3.70;;;2.35;;
37885;SDS011;23726;52.520;13.434;2022-09-02T05:51:43;2.28;;;2.03;;
37885;SDS011;23726;52.520;13.434;2022-09-02T05:54:10;2.20;;;2.00;;
37885;SDS011;23726;52.520;13.434;2022-09-02T05:56:39;3.08;;;1.92;;
37885;SDS011;23726;52.520;13.434;2022-09-02T05:59:06;2.22;;;2.00;;
37885;SDS011;23726;52.520;13.434;2022-09-02T06:01:32;2.60;;;2.20;;
37885;SDS011;23726;52.520;13.434;2022-09-02T06:04:00;2.72;;;1.70;;
37885;SDS011;23726;52.520;13.434;2022-09-02T06:06:27;2.38;;;2.17;;
37885;SDS011;23726;52.520;13.434;2022-09-02T06:08:54;2.22;;;1.83;;
37885;SDS011;23726;52.520;13.434;2022-09-02T06:11:21;2.05;;;1.95;;
37885;SDS011;23726;52.520;13.434;2022-09-02T06:13:46;2.20;;;2.00;;
37885;SDS011;23726;52.520;13.434;2022-09-02T06:16:13;2.33;;;2.13;;
37885;SDS011;23726;52.520;13.434;2022-09-02T06:18:42;2.13;;;1.83;;
37885;SDS011;23726;52.520;13.434;2022-09-02T06:21:07;2.85;;;1.95;;
37885;SDS011;23726;52.520;13.434;2022-09-02T06:23:35;2.83;;;1.90;;
37885;SDS011;23726;52.520;13.434;2022-09-02T06:26:06;2.38;;;1.95;;
37885;SDS011;23726;52.520;13.434;2022-09-02T06:28:34;2.33;;;2.00;;
37885;SDS011;23726;52.520;13.434;2022-09-02T06:31:10;2.30;;;2.10;;
37885;SDS011;23726;52.520;13.434;2022-09-02T06:33:39;2.20;;;2.00;;
37885;SDS011;23726;52.520;13.434;2022-09-02T06:36:07;3.47;;;2.00;;
37885;SDS011;23726;52.520;13.434;2022-09-02T06:38:37;2.35;;;2.10;;
37885;SDS011;23726;52.520;13.434;2022-09-02T06:41:04;2.65;;;2.42;;
37885;SDS011;23726;52.520;13.434;2022-09-02T06:43:31;2.90;;;2.05;;
37885;SDS011;23726;52.520;13.434;2022-09-02T06:45:56;3.00;;;2.10;;
37885;SDS011;23726;52.520;13.434;2022-09-02T06:48:22;2.35;;;2.00;;
37885;SDS011;23726;52.520;13.434;2022-09-02T06:50:47;2.85;;;2.33;;
37885;SDS011;23726;52.520;13.434;2022-09-02T06:53:14;2.83;;;1.92;;
37885;SDS011;23726;52.520;13.434;2022-09-02T06:55:42;5.15;;;2.13;;
37885;SDS011;23726;52.520;13.434;2022-09-02T06:58:09;2.20;;;2.00;;
37885;SDS011;23726;52.520;13.434;2022-09-02T07:00:36;4.30;;;2.08;;
37885;SDS011;23726;52.520;13.434;2022-09-02T07:03:03;2.30;;;1.80;;
37885;SDS011;23726;52.520;13.434;2022-09-02T07:05:57;2.58;;;2.22;;
37885;SDS011;23726;52.520;13.434;2022-09-02T07:08:36;3.53;;;2.40;;
37885;SDS011;23726;52.520;13.434;2022-09-02T07:11:03;2.92;;;2.28;;
37885;SDS011;23726;52.520;13.434;2022-09-02T07:13:32;2.70;;;2.00;;
37885;SDS011;23726;52.520;13.434;2022-09-02T07:15:58;2.10;;;1.80;;
37885;SDS011;23726;52.520;13.434;2022-09-02T07:18:23;2.22;;;2.05;;
37885;SDS011;23726;52.520;13.434;2022-09-02T07:20:50;2.40;;;2.20;;
37885;SDS011;23726;52.520;13.434;2022-09-02T07:23:17;3.13;;;2.08;;
37885;SDS011;23726;52.520;13.434;2022-09-02T07:25:43;2.72;;;1.75;;
37885;SDS011;23726;52.520;13.434;2022-09-02T07:28:09;5.75;;;2.13;;
37885;SDS011;23726;52.520;13.434;2022-09-02T07:30:35;2.85;;;2.15;;
37885;SDS011;23726;52.520;13.434;2022-09-02T07:33:03;3.05;;;2.20;;
37885;SDS011;23726;52.520;13.434;2022-09-02T07:35:29;3.85;;;2.00;;
37885;SDS011;23726;52.520;13.434;2022-09-02T07:37:55;2.58;;;2.30;;
37885;SDS011;23726;52.520;13.434;2022-09-02T07:40:20;2.70;;;1.98;;
37885;SDS011;23726;52.520;13.434;2022-09-02T07:42:47;2.30;;;2.10;;
37885;SDS011;23726;52.520;13.434;2022-09-02T07:45:14;2.35;;;2.05;;
37885;SDS011;23726;52.520;13.434;2022-09-02T07:47:39;4.25;;;2.33;;
37885;SDS011;23726;52.520;13.434;2022-09-02T07:50:07;3.72;;;2.53;;
37885;SDS011;23726;52.520;13.434;2022-09-02T07:52:33;4.05;;;2.22;;
37885;SDS011;23726;52.520;13.434;2022-09-02T07:54:58;3.35;;;2.20;;
37885;SDS011;23726;52.520;13.434;2022-09-02T07:57:24;4.32;;;2.20;;
37885;SDS011;23726;52.520;13.434;2022-09-02T07:59:50;2.22;;;2.03;;
37885;SDS011;23726;52.520;13.434;2022-09-02T08:02:15;2.33;;;2.13;;
37885;SDS011;23726;52.520;13.434;2022-09-02T08:04:42;3.63;;;2.00;;
37885;SDS011;23726;52.520;13.434;2022-09-02T08:07:09;3.63;;;2.22;;
37885;SDS011;23726;52.520;13.434;2022-09-02T08:09:35;2.50;;;1.80;;
37885;SDS011;23726;52.520;13.434;2022-09-02T08:12:01;2.67;;;2.20;;
37885;SDS011;23726;52.520;13.434;2022-09-02T08:14:29;3.75;;;2.63;;
37885;SDS011;23726;52.520;13.434;2022-09-02T08:16:55;2.20;;;2.00;;
37885;SDS011;23726;52.520;13.434;2022-09-02T08:19:22;2.53;;;2.28;;
37885;SDS011;23726;52.520;13.434;2022-09-02T08:21:48;3.13;;;2.10;;
37885;SDS011;23726;52.520;13.434;2022-09-02T08:24:14;3.15;;;2.10;;
37885;SDS011;23726;52.520;13.434;2022-09-02T08:26:40;3.35;;;2.08;;
37885;SDS011;23726;52.520;13.434;2022-09-02T08:29:06;4.30;;;2.30;;
37885;SDS011;23726;52.520;13.434;2022-09-02T08:31:33;3.08;;;2.25;;
37885;SDS011;23726;52.520;13.434;2022-09-02T08:34:06;4.38;;;2.10;;
37885;SDS011;23726;52.520;13.434;2022-09-02T08:36:32;2.72;;;1.85;;
37885;SDS011;23726;52.520;13.434;2022-09-02T08:39:00;2.53;;;2.03;;
37885;SDS011;23726;52.520;13.434;2022-09-02T08:41:33;2.22;;;2.03;;
37885;SDS011;23726;52.520;13.434;2022-09-02T08:44:21;2.13;;;1.92;;
37885;SDS011;23726;52.520;13.434;2022-09-02T08:46:49;2.25;;;2.05;;
37885;SDS011;23726;52.520;13.434;2022-09-02T08:49:27;4.78;;;2.20;;
37885;SDS011;23726;52.520;13.434;2022-09-02T08:51:56;4.25;;;2.40;;
37885;SDS011;23726;52.520;13.434;2022-09-02T08:54:42;2.40;;;2.20;;
37885;SDS011;23726;52.520;13.434;2022-09-02T08:57:13;4.20;;;2.13;;
37885;SDS011;23726;52.520;13.434;2022-09-02T08:59:39;3.88;;;2.20;;
37885;SDS011;23726;52.520;13.434;2022-09-02T09:10:36;3.40;;;2.22;;
37885;SDS011;23726;52.520;13.434;2022-09-02T09:16:47;4.07;;;2.20;;
37885;SDS011;23726;52.520;13.434;2022-09-02T09:18:48;2.42;;;2.10;;
37885;SDS011;23726;52.520;13.434;2022-09-02T09:21:29;2.90;;;2.17;;
37885;SDS011;23726;52.520;13.434;2022-09-02T09:23:55;2.97;;;2.10;;
37885;SDS011;23726;52.520;13.434;2022-09-02T09:26:27;2.30;;;2.10;;
37885;SDS011;23726;52.520;13.434;2022-09-02T09:28:56;3.38;;;2.05;;
37885;SDS011;23726;52.520;13.434;2022-09-02T09:31:25;3.80;;;2.15;;
37885;SDS011;23726;52.520;13.434;2022-09-02T09:36:45;3.20;;;2.17;;
37885;SDS011;23726;52.520;13.434;2022-09-02T09:39:17;2.38;;;1.95;;
37885;SDS011;23726;52.520;13.434;2022-09-02T09:41:45;2.47;;;2.28;;
37885;SDS011;23726;52.520;13.434;2022-09-02T09:44:27;1.95;;;1.65;;
37885;SDS011;23726;52.520;13.434;2022-09-02T09:47:27;3.40;;;2.13;;
37885;SDS011;23726;52.520;13.434;2022-09-02T09:50:08;2.28;;;1.92;;
37885;SDS011;23726;52.520;13.434;2022-09-02T09:52:36;3.42;;;2.17;;
37885;SDS011;23726;52.520;13.434;2022-09-02T09:55:18;6.25;;;2.30;;
37885;SDS011;23726;52.520;13.434;2022-09-02T09:57:46;2.15;;;1.92;;
37885;SDS011;23726;52.520;13.434;2022-09-02T10:00:18;2.80;;;2.20;;
37885;SDS011;23726;52.520;13.434;2022-09-02T10:03:01;2.30;;;1.70;;
37885;SDS011;23726;52.520;13.434;2022-09-02T10:05:31;2.97;;;1.80;;
37885;SDS011;23726;52.520;13.434;2022-09-02T10:08:03;4.35;;;2.13;;
37885;SDS011;23726;52.520;13.434;2022-09-02T10:13:24;4.07;;;2.30;;
37885;SDS011;23726;52.520;13.434;2022-09-02T10:16:05;5.80;;;2.05;;
37885;SDS011;23726;52.520;13.434;2022-09-02T10:18:55;2.60;;;2.03;;
37885;SDS011;23726;52.520;13.434;2022-09-02T10:21:38;2.70;;;2.05;;
37885;SDS011;23726;52.520;13.434;2022-09-02T10:24:41;2.30;;;1.90;;
37885;SDS011;23726;52.520;13.434;2022-09-02T10:30:21;2.72;;;1.77;;
37885;SDS011;23726;52.520;13.434;2022-09-02T10:46:24;27.45;;;12.73;;
37885;SDS011;23726;52.520;13.434;2022-09-02T10:51:46;62.70;;;25.58;;
37885;SDS011;23726;52.520;13.434;2022-09-02T10:54:35;56.63;;;25.30;;
37885;SDS011;23726;52.520;13.434;2022-09-02T11:00:09;58.75;;;26.33;;
37885;SDS011;23726;52.520;13.434;2022-09-02T11:02:46;58.80;;;26.52;;
37885;SDS011;23726;52.520;13.434;2022-09-02T11:05:14;54.25;;;25.80;;
37885;SDS011;23726;52.520;13.434;2022-09-02T11:08:00;55.90;;;26.08;;
37885;SDS011;23726;52.520;13.434;2022-09-02T11:10:46;56.05;;;25.95;;
37885;SDS011;23726;52.520;13.434;2022-09-02T11:13:27;60.00;;;26.25;;
37885;SDS011;23726;52.520;13.434;2022-09-02T11:16:09;55.17;;;24.70;;
37885;SDS011;23726;52.520;13.434;2022-09-02T11:18:49;50.22;;;22.88;;
37885;SDS011;23726;52.520;13.434;2022-09-02T11:27:04;45.13;;;20.02;;
37885;SDS011;23726;52.520;13.434;2022-09-02T11:29:42;38.67;;;17.88;;
37885;SDS011;23726;52.520;13.434;2022-09-02T11:35:00;26.00;;;14.00;;
37885;SDS011;23726;52.520;13.434;2022-09-02T11:40:22;28.20;;;13.32;;
37885;SDS011;23726;52.520;13.434;2022-09-02T11:46:04;23.90;;;11.30;;
37885;SDS011;23726;52.520;13.434;2022-09-02T11:54:04;19.25;;;10.95;;
37885;SDS011;23726;52.520;13.434;2022-09-02T11:56:35;19.52;;;10.18;;
37885;SDS011;23726;52.520;13.434;2022-09-02T11:59:04;17.15;;;9.75;;
37885;SDS011;23726;52.520;13.434;2022-09-02T12:01:32;18.15;;;9.32;;
37885;SDS011;23726;52.520;13.434;2022-09-02T12:04:04;17.30;;;9.13;;
37885;SDS011;23726;52.520;13.434;2022-09-02T12:06:36;17.23;;;9.05;;
37885;SDS011;23726;52.520;13.434;2022-09-02T12:09:42;15.13;;;8.10;;
37885;SDS011;23726;52.520;13.434;2022-09-02T12:15:16;11.80;;;6.82;;
37885;SDS011;23726;52.520;13.434;2022-09-02T12:23:06;10.52;;;6.38;;
37885;SDS011;23726;52.520;13.434;2022-09-02T12:25:35;10.27;;;6.22;;
37885;SDS011;23726;52.520;13.434;2022-09-02T12:28:24;10.88;;;5.30;;
37885;SDS011;23726;52.520;13.434;2022-09-02T12:33:41;6.78;;;4.75;;
37885;SDS011;23726;52.520;13.434;2022-09-02T12:36:09;8.45;;;4.53;;
37885;SDS011;23726;52.520;13.434;2022-09-02T12:42:13;8.02;;;4.47;;
37885;SDS011;23726;52.520;13.434;2022-09-02T12:45:11;6.90;;;4.80;;
37885;SDS011;23726;52.520;13.434;2022-09-02T12:53:20;6.15;;;4.13;;
37885;SDS011;23726;52.520;13.434;2022-09-02T12:58:38;6.32;;;4.22;;
37885;SDS011;23726;52.520;13.434;2022-09-02T13:04:21;9.30;;;4.30;;
37885;SDS011;23726;52.520;13.434;2022-09-02T13:12:43;5.95;;;4.28;;
37885;SDS011;23726;52.520;13.434;2022-09-02T13:18:39;7.35;;;4.45;;
37885;SDS011;23726;52.520;13.434;2022-09-02T13:26:51;6.00;;;3.92;;
37885;SDS011;23726;52.520;13.434;2022-09-02T13:34:44;7.45;;;4.20;;
37885;SDS011;23726;52.520;13.434;2022-09-02T13:37:35;7.78;;;4.35;;
37885;SDS011;23726;52.520;13.434;2022-09-02T13:40:18;5.88;;;3.78;;
37885;SDS011;23726;52.520;13.434;2022-09-02T13:42:53;6.55;;;3.75;;
37885;SDS011;23726;52.520;13.434;2022-09-02T13:45:22;4.72;;;3.33;;
37885;SDS011;23726;52.520;13.434;2022-09-02T13:47:52;7.18;;;4.10;;
37885;SDS011;23726;52.520;13.434;2022-09-02T13:50:21;6.40;;;4.05;;
37885;SDS011;23726;52.520;13.434;2022-09-02T13:52:53;7.03;;;3.95;;
37885;SDS011;23726;52.520;13.434;2022-09-02T13:55:20;7.47;;;4.13;;
37885;SDS011;23726;52.520;13.434;2022-09-02T13:57:57;6.07;;;3.78;;
37885;SDS011;23726;52.520;13.434;2022-09-02T14:00:35;7.85;;;4.20;;
37885;SDS011;23726;52.520;13.434;2022-09-02T14:03:06;6.10;;;3.85;;
37885;SDS011;23726;52.520;13.434;2022-09-02T14:05:37;6.60;;;3.80;;
37885;SDS011;23726;52.520;13.434;2022-09-02T14:08:10;5.25;;;3.45;;
37885;SDS011;23726;52.520;13.434;2022-09-02T14:13:06;5.10;;;3.25;;
37885;SDS011;23726;52.520;13.434;2022-09-02T14:15:34;5.70;;;3.45;;
37885;SDS011;23726;52.520;13.434;2022-09-02T14:18:09;5.28;;;3.40;;
37885;SDS011;23726;52.520;13.434;2022-09-02T14:20:52;6.05;;;3.85;;
37885;SDS011;23726;52.520;13.434;2022-09-02T14:23:18;5.53;;;3.27;;
37885;SDS011;23726;52.520;13.434;2022-09-02T14:25:48;4.60;;;3.67;;
37885;SDS011;23726;52.520;13.434;2022-09-02T14:28:18;5.40;;;3.00;;
37885;SDS011;23726;52.520;13.434;2022-09-02T14:30:55;7.90;;;3.40;;
37885;SDS011;23726;52.520;13.434;2022-09-02T14:33:26;6.07;;;3.50;;
37885;SDS011;23726;52.520;13.434;2022-09-02T14:43:52;4.07;;;3.28;;
37885;SDS011;23726;52.520;13.434;2022-09-02T14:46:28;6.32;;;3.33;;
37885;SDS011;23726;52.520;13.434;2022-09-02T14:49:04;4.78;;;3.42;;
37885;SDS011;23726;52.520;13.434;2022-09-02T14:54:09;6.22;;;3.20;;
37885;SDS011;23726;52.520;13.434;2022-09-02T14:56:41;5.68;;;3.42;;
37885;SDS011;23726;52.520;13.434;2022-09-02T14:59:11;4.88;;;3.17;;
37885;SDS011;23726;52.520;13.434;2022-09-02T15:01:41;4.32;;;3.03;;
37885;SDS011;23726;52.520;13.434;2022-09-02T15:04:10;3.65;;;3.28;;
37885;SDS011;23726;52.520;13.434;2022-09-02T15:06:36;3.72;;;3.30;;
37885;SDS011;23726;52.520;13.434;2022-09-02T15:09:02;4.10;;;3.22;;
37885;SDS011;23726;52.520;13.434;2022-09-02T15:11:29;6.07;;;2.83;;
37885;SDS011;23726;52.520;13.434;2022-09-02T15:13:54;3.10;;;2.80;;
37885;SDS011;23726;52.520;13.434;2022-09-02T15:16:20;3.67;;;2.72;;
37885;SDS011;23726;52.520;13.434;2022-09-02T15:18:45;5.55;;;3.13;;
37885;SDS011;23726;52.520;13.434;2022-09-02T15:21:11;4.32;;;3.00;;
37885;SDS011;23726;52.520;13.434;2022-09-02T15:23:37;3.58;;;2.83;;
37885;SDS011;23726;52.520;13.434;2022-09-02T15:26:04;3.40;;;3.10;;
37885;SDS011;23726;52.520;13.434;2022-09-02T15:28:31;6.40;;;3.15;;
37885;SDS011;23726;52.520;13.434;2022-09-02T15:30:57;4.18;;;2.75;;
37885;SDS011;23726;52.520;13.434;2022-09-02T15:33:24;3.70;;;3.00;;
37885;SDS011;23726;52.520;13.434;2022-09-02T15:35:50;5.82;;;3.13;;
37885;SDS011;23726;52.520;13.434;2022-09-02T15:38:15;5.32;;;2.85;;
37885;SDS011;23726;52.520;13.434;2022-09-02T15:40:42;4.47;;;3.00;;
37885;SDS011;23726;52.520;13.434;2022-09-02T15:43:11;4.18;;;3.00;;
37885;SDS011;23726;52.520;13.434;2022-09-02T15:45:43;3.72;;;2.95;;
37885;SDS011;23726;52.520;13.434;2022-09-02T15:48:13;4.20;;;2.97;;
37885;SDS011;23726;52.520;13.434;2022-09-02T15:50:39;3.65;;;2.80;;
37885;SDS011;23726;52.520;13.434;2022-09-02T15:53:04;4.03;;;2.85;;
37885;SDS011;23726;52.520;13.434;2022-09-02T15:55:31;3.35;;;2.63;;
37885;SDS011;23726;52.520;13.434;2022-09-02T15:57:58;4.65;;;2.95;;
37885;SDS011;23726;52.520;13.434;2022-09-02T16:00:31;4.03;;;2.70;;
37885;SDS011;23726;52.520;13.434;2022-09-02T16:02:58;3.13;;;2.50;;
37885;SDS011;23726;52.520;13.434;2022-09-02T16:05:25;3.13;;;2.80;;
37885;SDS011;23726;52.520;13.434;2022-09-02T16:07:50;2.75;;;2.20;;
37885;SDS011;23726;52.520;13.434;2022-09-02T16:10:18;3.53;;;2.70;;
37885;SDS011;23726;52.520;13.434;2022-09-02T16:12:43;2.80;;;2.55;;
37885;SDS011;23726;52.520;13.434;2022-09-02T16:15:12;4.55;;;2.67;;
37885;SDS011;23726;52.520;13.434;2022-09-02T16:17:37;2.88;;;2.67;;
37885;SDS011;23726;52.520;13.434;2022-09-02T16:20:06;4.75;;;2.33;;
37885;SDS011;23726;52.520;13.434;2022-09-02T16:22:32;2.90;;;2.53;;
37885;SDS011;23726;52.520;13.434;2022-09-02T16:24:58;2.58;;;2.38;;
37885;SDS011;23726;52.520;13.434;2022-09-02T16:27:26;3.20;;;2.83;;
37885;SDS011;23726;52.520;13.434;2022-09-02T16:30:10;3.42;;;2.50;;
37885;SDS011;23726;52.520;13.434;2022-09-02T16:32:36;3.80;;;2.60;;
37885;SDS011;23726;52.520;13.434;2022-09-02T16:35:01;3.00;;;2.42;;
37885;SDS011;23726;52.520;13.434;2022-09-02T16:37:27;3.15;;;2.58;;
37885;SDS011;23726;52.520;13.434;2022-09-02T16:39:53;3.15;;;2.50;;
37885;SDS011;23726;52.520;13.434;2022-09-02T16:42:19;4.47;;;2.55;;
37885;SDS011;23726;52.520;13.434;2022-09-02T16:44:44;2.72;;;2.53;;
37885;SDS011;23726;52.520;13.434;2022-09-02T16:47:10;2.75;;;2.42;;
37885;SDS011;23726;52.520;13.434;2022-09-02T16:49:35;3.45;;;2.60;;